Rose Hill, Texas
Current Conditions -  °F | °C
As of 12:53 PM on Tuesday 21 Oct 2014 (Local Time) from KDWH Reporting Station
Clear Clear  
Wind Chill: 27°   Ceiling: Unl
Heat Index: 27°   Visibility: 10mi
Dew Point: 12°   Wind: 7mph
Humidity: 40%   Direction: 60°ENE
Pressure: 30.06"   Gusts: NA
Location:  30.0721°N, 95.6453°W
Report Text: KDWH 211753Z 06006KT 10SM CLR 27/12 A3006 RMK AO2 SLP175 T02670122 10267 20128 58010
Loading
Personal Weather Stations






























Interactive Weather Map
Tropical Storm Tracking
New forecast layout! Learn more

10-Day Weather Forecast

Advertisements
Track Severe Weather on mobile